createdAt,value
2018-07-27T00:02:13.005Z,7.53
2018-07-27T00:04:41.784Z,7.63
2018-07-27T00:07:10.661Z,7.90
2018-07-27T00:09:39.433Z,7.47
2018-07-27T00:12:08.185Z,7.50
2018-07-27T00:14:36.997Z,7.60
2018-07-27T00:17:05.845Z,7.30
2018-07-27T00:19:34.612Z,8.13
2018-07-27T00:22:03.180Z,7.83
2018-07-27T00:24:31.890Z,7.93
2018-07-27T00:27:00.450Z,8.43
2018-07-27T00:29:29.165Z,7.90
2018-07-27T00:31:57.962Z,7.57
2018-07-27T00:34:27.057Z,7.33
2018-07-27T00:36:55.844Z,7.03
2018-07-27T00:39:24.467Z,7.60
2018-07-27T00:41:53.421Z,6.97
2018-07-27T00:44:22.237Z,7.27
2018-07-27T00:46:51.693Z,7.10
2018-07-27T00:49:20.481Z,7.57
2018-07-27T00:51:49.333Z,7.17
2018-07-27T00:54:18.189Z,7.20
2018-07-27T00:56:47.049Z,7.27
2018-07-27T00:59:15.821Z,7.27
2018-07-27T01:01:44.805Z,7.47
2018-07-27T01:04:13.736Z,7.13
2018-07-27T01:06:42.537Z,7.40
2018-07-27T01:09:11.901Z,7.70
2018-07-27T01:11:41.024Z,8.10
2018-07-27T01:14:09.618Z,7.30
2018-07-27T01:16:38.301Z,7.63
2018-07-27T01:19:06.888Z,6.90
2018-07-27T01:21:35.605Z,7.43
2018-07-27T01:24:04.418Z,8.03
2018-07-27T01:26:33.626Z,6.63
2018-07-27T01:29:02.357Z,7.77
2018-07-27T01:31:31.141Z,7.57
2018-07-27T01:33:59.929Z,7.17
2018-07-27T01:36:28.669Z,6.80
2018-07-27T01:38:57.491Z,7.23
2018-07-27T01:41:26.229Z,6.90
2018-07-27T01:43:55.153Z,6.93
2018-07-27T01:46:23.925Z,6.73
2018-07-27T01:48:53.057Z,6.97
2018-07-27T01:51:21.829Z,7.77
2018-07-27T01:53:50.677Z,7.53
2018-07-27T01:56:19.445Z,7.10
2018-07-27T01:58:48.376Z,6.70
2018-07-27T02:01:17.186Z,7.13
2018-07-27T02:03:45.943Z,5.70
2018-07-27T02:06:14.837Z,7.00
2018-07-27T02:08:43.643Z,6.47
2018-07-27T02:11:12.446Z,6.70
2018-07-27T02:13:41.293Z,6.37
2018-07-27T02:16:10.349Z,6.10
2018-07-27T02:18:39.123Z,6.17
2018-07-27T02:21:08.142Z,6.20
2018-07-27T02:23:37.216Z,6.30
2018-07-27T02:26:05.989Z,5.90
2018-07-27T02:28:34.777Z,6.10
2018-07-27T02:31:03.698Z,6.40
2018-07-27T02:33:32.266Z,6.07
2018-07-27T02:36:00.757Z,6.03
2018-07-27T02:38:29.204Z,6.13
2018-07-27T02:40:57.899Z,5.63
2018-07-27T02:43:26.698Z,6.03
2018-07-27T02:45:55.457Z,6.37
2018-07-27T02:48:24.217Z,6.13
2018-07-27T02:50:53.349Z,6.93
2018-07-27T02:53:22.122Z,6.27
2018-07-27T02:55:50.929Z,6.00
2018-07-27T02:58:20.010Z,6.40
2018-07-27T03:00:49.114Z,5.70
2018-07-27T03:03:17.865Z,6.73
2018-07-27T03:05:46.644Z,6.87
2018-07-27T03:08:15.415Z,6.60
2018-07-27T03:10:44.269Z,6.30
2018-07-27T03:13:13.112Z,6.40
2018-07-27T03:15:41.846Z,6.50
2018-07-27T03:18:10.740Z,6.87
2018-07-27T03:20:39.627Z,6.93
2018-07-27T03:23:08.445Z,6.47
2018-07-27T03:25:37.213Z,6.23
2018-07-27T03:28:06.325Z,6.93
2018-07-27T03:30:35.189Z,7.33
2018-07-27T03:33:03.982Z,7.70
2018-07-27T03:35:33.343Z,9.03
2018-07-27T03:38:02.085Z,9.00
2018-07-27T03:40:30.857Z,8.23
2018-07-27T03:42:59.778Z,8.30
2018-07-27T03:45:28.573Z,8.80
2018-07-27T03:47:58.549Z,7.97
2018-07-27T03:50:27.335Z,7.93
2018-07-27T03:52:55.922Z,8.30
2018-07-27T03:55:24.594Z,8.63
2018-07-27T03:57:53.340Z,8.03
2018-07-27T04:00:22.090Z,8.23
2018-07-27T04:02:50.889Z,8.57
2018-07-27T04:05:19.637Z,8.13
2018-07-27T04:07:48.405Z,8.27
2018-07-27T04:10:17.241Z,7.87
2018-07-27T04:12:46.145Z,7.87
2018-07-27T04:15:15.026Z,8.37
2018-07-27T04:18:01.454Z,8.50
2018-07-27T04:20:30.927Z,8.60
2018-07-27T04:22:59.789Z,8.77
2018-07-27T04:25:28.630Z,8.40
2018-07-27T04:27:57.454Z,8.90
2018-07-27T04:30:26.191Z,7.53
2018-07-27T04:32:54.947Z,8.10
2018-07-27T04:35:23.495Z,8.50
2018-07-27T04:37:52.185Z,9.00
2018-07-27T04:40:20.941Z,8.80
2018-07-27T04:42:49.743Z,9.00
2018-07-27T04:45:18.457Z,9.17
2018-07-27T04:47:47.268Z,9.20
2018-07-27T04:50:16.219Z,8.57
2018-07-27T04:52:44.985Z,8.80
2018-07-27T04:55:13.773Z,9.23
2018-07-27T04:57:42.574Z,8.83
2018-07-27T05:00:11.346Z,7.73
2018-07-27T05:02:40.164Z,8.10
2018-07-27T05:05:08.921Z,7.50
2018-07-27T05:07:38.161Z,8.93
2018-07-27T05:11:14.197Z,8.40
2018-07-27T05:13:43.192Z,7.93
2018-07-27T05:16:12.078Z,8.37
2018-07-27T05:18:40.834Z,7.37
2018-07-27T05:21:09.748Z,8.00
2018-07-27T05:23:38.493Z,8.03
2018-07-27T05:26:07.233Z,8.00
2018-07-27T05:28:36.001Z,8.50
2018-07-27T05:31:04.745Z,8.07
2018-07-27T05:33:33.558Z,8.30
2018-07-27T05:36:02.137Z,6.93
2018-07-27T05:38:30.816Z,6.67
2018-07-27T05:40:59.629Z,6.97
2018-07-27T05:43:28.189Z,8.67
2018-07-27T05:45:56.656Z,7.87
2018-07-27T05:48:25.678Z,6.60
2018-07-27T05:50:54.245Z,6.87
2018-07-27T05:53:22.985Z,7.27
2018-07-27T05:55:51.842Z,6.97
2018-07-27T05:58:20.684Z,8.03
2018-07-27T06:00:49.613Z,8.07
2018-07-27T06:03:18.213Z,8.10
2018-07-27T06:05:46.872Z,8.53
2018-07-27T06:08:15.817Z,7.87
2018-07-27T06:10:44.613Z,8.93
2018-07-27T06:13:13.456Z,9.10
2018-07-27T06:15:42.233Z,10.57
2018-07-27T06:18:11.118Z,10.63
2018-07-27T06:20:39.936Z,10.63
2018-07-27T06:23:08.693Z,10.10
2018-07-27T06:25:37.457Z,13.10
2018-07-27T06:28:06.258Z,11.50
2018-07-27T06:30:34.978Z,11.27
2018-07-27T06:33:03.556Z,10.03
2018-07-27T06:35:32.232Z,9.33
2018-07-27T06:38:00.997Z,8.33
2018-07-27T06:40:29.781Z,7.90
2018-07-27T06:42:58.553Z,7.20
2018-07-27T06:45:27.341Z,7.23
2018-07-27T06:47:56.159Z,5.93
2018-07-27T06:50:25.229Z,6.53
2018-07-27T06:52:53.965Z,5.73
2018-07-27T06:55:22.765Z,5.30
2018-07-27T06:57:51.885Z,5.87
2018-07-27T07:00:20.542Z,5.00
2018-07-27T07:02:49.310Z,4.40
2018-07-27T07:05:18.125Z,4.90
2018-07-27T07:07:46.850Z,5.30
2018-07-27T07:10:15.496Z,4.50
2018-07-27T07:12:44.274Z,4.23
2018-07-27T07:15:13.230Z,3.67
2018-07-27T07:17:42.110Z,4.33
2018-07-27T07:20:10.854Z,4.00
2018-07-27T07:22:39.746Z,4.60
2018-07-27T07:25:08.654Z,4.40
2018-07-27T07:27:37.369Z,4.17
2018-07-27T07:30:06.465Z,4.20
2018-07-27T07:32:35.206Z,4.90
2018-07-27T07:35:04.277Z,4.70
2018-07-27T07:37:33.061Z,4.43
2018-07-27T07:40:01.836Z,4.13
2018-07-27T07:42:30.564Z,4.17
2018-07-27T07:44:59.175Z,4.40
2018-07-27T07:47:27.825Z,4.83
2018-07-27T07:49:56.606Z,4.93
2018-07-27T07:52:25.899Z,4.70
2018-07-27T07:54:54.713Z,4.33
2018-07-27T07:57:23.481Z,4.60
2018-07-27T07:59:52.250Z,5.40
2018-07-27T08:02:20.994Z,4.97
2018-07-27T08:04:49.545Z,5.50
2018-07-27T08:07:18.273Z,5.40
2018-07-27T08:09:47.105Z,5.00
2018-07-27T08:12:15.858Z,4.97
2018-07-27T08:14:44.665Z,5.83
2018-07-27T08:17:13.420Z,6.07
2018-07-27T08:19:42.042Z,5.47
2018-07-27T08:22:10.721Z,5.20
2018-07-27T08:24:39.525Z,4.67
2018-07-27T08:27:08.301Z,4.77
2018-07-27T08:29:40.245Z,4.50
2018-07-27T08:32:09.204Z,4.37
2018-07-27T08:34:38.154Z,3.73
2018-07-27T08:37:07.347Z,4.43
2018-07-27T08:39:37.470Z,4.90
2018-07-27T08:42:06.238Z,5.30
2018-07-27T08:44:36.238Z,4.33
2018-07-27T08:47:05.369Z,4.43
2018-07-27T08:49:34.214Z,4.50
2018-07-27T08:52:02.865Z,4.53
2018-07-27T08:54:31.634Z,4.63
2018-07-27T08:57:00.425Z,3.83
2018-07-27T08:59:29.236Z,4.50
2018-07-27T09:01:58.113Z,4.20
2018-07-27T09:04:26.909Z,3.97
2018-07-27T09:06:55.749Z,3.93
2018-07-27T09:09:24.889Z,3.90
2018-07-27T09:11:53.725Z,3.90
2018-07-27T09:14:22.321Z,3.73
2018-07-27T09:16:51.217Z,3.87
2018-07-27T09:19:19.748Z,3.70
2018-07-27T09:21:48.654Z,3.87
2018-07-27T09:24:17.523Z,3.30
2018-07-27T09:26:46.201Z,3.30
2018-07-27T09:29:15.140Z,3.37
2018-07-27T09:31:43.937Z,3.63
2018-07-27T09:34:12.754Z,3.07
2018-07-27T09:36:41.490Z,3.10
2018-07-27T09:39:11.141Z,3.73
2018-07-27T09:41:39.998Z,2.97
2018-07-27T09:44:08.769Z,2.70
2018-07-27T09:46:37.577Z,3.20
2018-07-27T09:49:06.337Z,3.53
2018-07-27T09:51:35.155Z,3.60
2018-07-27T09:54:03.761Z,2.63
2018-07-27T09:56:32.425Z,3.20
2018-07-27T09:59:01.207Z,3.33
2018-07-27T10:01:30.505Z,3.60
2018-07-27T10:03:59.590Z,3.13
2018-07-27T10:06:28.413Z,3.43
2018-07-27T10:08:57.198Z,3.53
2018-07-27T10:11:26.030Z,3.53
2018-07-27T10:13:54.850Z,3.57
2018-07-27T10:16:23.702Z,3.67
2018-07-27T10:18:52.687Z,3.13
2018-07-27T10:21:21.565Z,3.23
2018-07-27T10:23:50.431Z,3.27
2018-07-27T10:26:19.368Z,3.00
2018-07-27T10:28:48.197Z,3.67
2018-07-27T10:31:17.065Z,3.40
2018-07-27T10:33:45.910Z,3.20
2018-07-27T10:36:16.765Z,2.90
2018-07-27T10:38:45.628Z,2.83
2018-07-27T10:41:14.385Z,3.30
2018-07-27T10:43:43.260Z,3.73
2018-07-27T10:46:12.018Z,3.00
2018-07-27T10:48:40.585Z,3.20
2018-07-27T10:51:09.277Z,3.10
2018-07-27T10:53:38.054Z,2.83
2018-07-27T10:56:06.829Z,3.33
2018-07-27T10:58:35.724Z,3.40
2018-07-27T11:01:04.719Z,3.10
2018-07-27T11:03:33.498Z,3.60
2018-07-27T11:06:02.293Z,3.03
2018-07-27T11:08:31.218Z,3.23
2018-07-27T11:10:59.798Z,3.77
2018-07-27T11:13:28.577Z,3.57
2018-07-27T11:15:57.373Z,4.20
2018-07-27T11:18:26.191Z,3.77
2018-07-27T11:20:55.002Z,3.80
2018-07-27T11:23:23.854Z,4.40
2018-07-27T11:25:52.411Z,4.10
2018-07-27T11:28:21.093Z,4.30
2018-07-27T11:30:49.929Z,3.63
2018-07-27T11:33:18.689Z,4.47
2018-07-27T11:35:47.265Z,4.37
2018-07-27T11:38:15.765Z,4.77
2018-07-27T11:40:44.531Z,6.60
2018-07-27T11:43:13.374Z,4.87
2018-07-27T11:45:42.062Z,4.47
2018-07-27T11:48:10.858Z,4.90
2018-07-27T11:50:39.674Z,4.23
2018-07-27T11:53:08.486Z,4.50
2018-07-27T11:55:37.265Z,5.13
2018-07-27T11:58:06.097Z,4.80
2018-07-27T12:00:35.171Z,4.80
2018-07-27T12:03:03.982Z,4.20
2018-07-27T12:05:32.825Z,4.77
2018-07-27T12:08:01.650Z,4.80
2018-07-27T12:10:30.437Z,5.30
2018-07-27T12:12:59.481Z,4.70
2018-07-27T12:15:28.449Z,4.97
2018-07-27T12:17:57.212Z,4.97
2018-07-27T12:20:26.177Z,4.97
2018-07-27T12:22:54.938Z,4.40
2018-07-27T12:25:23.743Z,5.20
2018-07-27T12:27:52.693Z,5.03
2018-07-27T12:30:21.819Z,4.87
2018-07-27T12:32:50.569Z,4.77
2018-07-27T12:35:19.276Z,4.83
2018-07-27T12:37:48.166Z,4.63
2018-07-27T12:40:17.076Z,4.33
2018-07-27T12:42:45.981Z,4.53
2018-07-27T12:45:14.686Z,4.20
2018-07-27T12:47:43.534Z,4.50
2018-07-27T12:50:12.337Z,4.60
2018-07-27T12:52:41.122Z,4.97
2018-07-27T12:55:10.068Z,4.33
2018-07-27T12:57:38.865Z,4.20
2018-07-27T13:00:08.394Z,4.43
2018-07-27T13:02:37.068Z,4.23
2018-07-27T13:05:06.124Z,4.23
2018-07-27T13:07:34.855Z,4.63
2018-07-27T13:10:04.545Z,4.83
2018-07-27T13:12:34.349Z,5.97
2018-07-27T13:15:02.908Z,4.53
2018-07-27T13:17:31.611Z,4.60
2018-07-27T13:20:00.583Z,5.10
2018-07-27T13:22:29.863Z,4.50
2018-07-27T13:24:59.024Z,4.37
2018-07-27T13:27:28.001Z,4.40
2018-07-27T13:29:56.781Z,4.83
2018-07-27T13:32:25.245Z,4.90
2018-07-27T13:34:58.035Z,3.80
2018-07-27T13:37:28.381Z,4.70
2018-07-27T13:39:58.169Z,5.00
2018-07-27T13:42:28.105Z,4.60
2018-07-27T13:44:57.016Z,4.20
2018-07-27T13:47:25.890Z,4.57
2018-07-27T13:49:54.840Z,4.13
2018-07-27T13:52:23.553Z,4.23
2018-07-27T13:54:52.365Z,4.33
2018-07-27T13:57:21.158Z,4.20
2018-07-27T13:59:50.124Z,4.27
2018-07-27T14:02:18.977Z,4.10
2018-07-27T14:04:47.854Z,4.73
2018-07-27T14:07:16.804Z,4.20
2018-07-27T14:09:45.594Z,3.90
2018-07-27T14:12:14.647Z,4.37
2018-07-27T14:14:43.458Z,4.13
2018-07-27T14:17:12.229Z,4.23
2018-07-27T14:19:41.089Z,4.50
2018-07-27T14:22:10.225Z,4.63
2018-07-27T14:24:39.239Z,4.30
2018-07-27T14:27:07.981Z,4.03
2018-07-27T14:29:36.751Z,4.20
2018-07-27T14:32:05.684Z,3.90
2018-07-27T14:34:34.406Z,3.80
2018-07-27T14:37:03.198Z,4.23
2018-07-27T14:39:31.957Z,4.17
2018-07-27T14:42:00.727Z,3.93
2018-07-27T14:44:29.533Z,3.70
2018-07-27T14:46:58.249Z,4.07
2018-07-27T14:49:27.037Z,3.47
2018-07-27T14:51:55.819Z,3.57
2018-07-27T14:54:24.639Z,4.00
2018-07-27T14:56:53.403Z,4.30
2018-07-27T14:59:22.259Z,4.03
2018-07-27T15:01:51.098Z,4.50
2018-07-27T15:04:19.792Z,5.07
2018-07-27T15:06:48.482Z,3.93
2018-07-27T15:09:17.253Z,4.40
2018-07-27T15:11:46.161Z,3.97
2018-07-27T15:14:14.946Z,4.70
2018-07-27T15:16:43.713Z,4.47
2018-07-27T15:19:12.605Z,4.60
2018-07-27T15:21:41.387Z,3.93
2018-07-27T15:24:10.205Z,4.90
2018-07-27T15:26:39.089Z,5.20
2018-07-27T15:29:08.116Z,3.77
2018-07-27T15:31:36.861Z,5.07
2018-07-27T15:34:05.908Z,4.47
2018-07-27T15:36:34.660Z,4.40
2018-07-27T15:39:03.494Z,4.80
2018-07-27T15:41:32.284Z,5.30
2018-07-27T15:44:01.054Z,4.90
2018-07-27T15:46:30.022Z,5.10
2018-07-27T15:48:58.813Z,4.53
2018-07-27T15:51:27.591Z,6.87
2018-07-27T15:53:56.373Z,5.03
2018-07-27T15:56:25.006Z,4.87
2018-07-27T15:58:53.689Z,4.63
2018-07-27T16:01:22.542Z,4.60
2018-07-27T16:03:51.332Z,5.13
2018-07-27T16:06:20.125Z,4.77
2018-07-27T16:08:48.712Z,4.37
2018-07-27T16:11:17.408Z,4.93
2018-07-27T16:13:46.253Z,5.30
2018-07-27T16:16:15.079Z,4.57
2018-07-27T16:18:43.741Z,5.13
2018-07-27T16:21:12.628Z,5.67
2018-07-27T16:23:41.436Z,5.17
2018-07-27T16:26:10.052Z,4.60
2018-07-27T16:28:38.697Z,4.90
2018-07-27T16:31:07.611Z,4.50
2018-07-27T16:33:36.409Z,4.60
2018-07-27T16:36:05.465Z,5.57
2018-07-27T16:38:34.265Z,5.37
2018-07-27T16:41:03.050Z,5.43
2018-07-27T16:43:31.813Z,4.73
2018-07-27T16:46:00.732Z,4.80
2018-07-27T16:48:29.543Z,5.37
2018-07-27T16:50:58.401Z,4.77
2018-07-27T16:53:27.192Z,4.60
2018-07-27T16:55:56.046Z,4.80
2018-07-27T16:58:24.848Z,4.90
2018-07-27T17:00:53.885Z,5.20
2018-07-27T17:03:22.710Z,4.90
2018-07-27T17:05:51.766Z,5.13
2018-07-27T17:08:20.540Z,5.67
2018-07-27T17:10:49.193Z,5.03
2018-07-27T17:13:17.923Z,5.00
2018-07-27T17:15:46.800Z,4.83
2018-07-27T17:18:15.765Z,4.90
2018-07-27T17:20:44.727Z,4.83
2018-07-27T17:23:13.573Z,5.33
2018-07-27T17:25:42.451Z,4.90
2018-07-27T17:28:11.466Z,5.20
2018-07-27T17:30:40.375Z,5.07
2018-07-27T17:33:09.473Z,5.40
2018-07-27T17:35:38.045Z,5.40
2018-07-27T17:38:06.665Z,4.83
2018-07-27T17:40:35.349Z,4.67
2018-07-27T17:43:04.331Z,4.87
2018-07-27T17:45:33.065Z,5.13
2018-07-27T17:48:01.850Z,4.80
2018-07-27T17:50:30.629Z,5.13
2018-07-27T17:53:00.334Z,4.93
2018-07-27T17:55:29.081Z,5.50
2018-07-27T17:57:57.632Z,5.27
2018-07-27T18:00:26.354Z,5.47
2018-07-27T18:02:54.916Z,5.20
2018-07-27T18:05:23.978Z,5.07
2018-07-27T18:07:53.045Z,5.10
2018-07-27T18:10:21.682Z,5.23
2018-07-27T18:12:50.540Z,4.90
2018-07-27T18:15:19.537Z,5.77
2018-07-27T18:17:48.783Z,5.37
2018-07-27T18:20:17.533Z,4.70
2018-07-27T18:22:46.651Z,4.83
2018-07-27T18:25:16.527Z,4.80
2018-07-27T18:27:46.149Z,5.37
2018-07-27T18:30:14.966Z,5.00
2018-07-27T18:32:43.756Z,4.93
2018-07-27T18:35:12.565Z,4.10
2018-07-27T18:37:41.369Z,4.80
2018-07-27T18:40:10.205Z,4.40
2018-07-27T18:42:38.889Z,4.83
2018-07-27T18:45:08.275Z,5.87
2018-07-27T18:47:37.281Z,4.90
2018-07-27T18:50:07.065Z,6.37
2018-07-27T18:52:36.086Z,5.40
2018-07-27T18:55:05.506Z,6.73
2018-07-27T18:57:34.401Z,5.10
2018-07-27T19:00:03.376Z,5.77
2018-07-27T19:02:32.129Z,5.03
2018-07-27T19:05:00.925Z,6.00
2018-07-27T19:07:29.705Z,5.13
2018-07-27T19:09:58.449Z,5.30
2018-07-27T19:12:27.253Z,5.77
2018-07-27T19:14:56.038Z,5.37
2018-07-27T19:17:24.850Z,5.53
2018-07-27T19:19:53.577Z,6.10
2018-07-27T19:22:22.329Z,5.47
2018-07-27T19:24:51.109Z,6.63
2018-07-27T19:27:19.989Z,6.20
2018-07-27T19:29:48.749Z,5.73
2018-07-27T19:32:17.505Z,6.27
2018-07-27T19:34:46.241Z,5.23
2018-07-27T19:37:15.118Z,6.20
2018-07-27T19:39:43.868Z,7.23
2018-07-27T19:42:12.720Z,6.00
2018-07-27T19:44:41.417Z,6.63
2018-07-27T19:47:10.344Z,6.27
2018-07-27T19:49:39.091Z,6.13
2018-07-27T19:52:07.854Z,6.53
2018-07-27T19:54:36.586Z,7.03
2018-07-27T19:57:05.465Z,6.83
2018-07-27T19:59:34.313Z,6.23
2018-07-27T20:02:03.045Z,6.87
2018-07-27T20:04:32.706Z,5.53
2018-07-27T20:07:01.566Z,6.07
2018-07-27T20:09:30.312Z,7.07
2018-07-27T20:11:59.081Z,6.63
2018-07-27T20:14:27.854Z,6.10
2018-07-27T20:16:56.593Z,7.60
2018-07-27T20:19:25.507Z,6.73
2018-07-27T20:21:54.690Z,6.33
2018-07-27T20:24:23.638Z,7.03
2018-07-27T20:26:52.677Z,6.23
2018-07-27T20:29:21.496Z,6.27
2018-07-27T20:31:51.926Z,6.10
2018-07-27T20:34:20.826Z,7.03
2018-07-27T20:36:49.745Z,7.70
2018-07-27T20:39:18.602Z,7.53
2018-07-27T20:41:47.361Z,5.93
2018-07-27T20:44:16.146Z,6.53
2018-07-27T20:46:44.936Z,5.97
2018-07-27T20:49:13.801Z,5.77
2018-07-27T20:51:42.613Z,6.37
2018-07-27T20:54:11.425Z,6.53
2018-07-27T20:56:40.390Z,5.60
2018-07-27T20:59:09.392Z,6.60
2018-07-27T21:01:38.155Z,6.73
2018-07-27T21:04:07.029Z,6.93
2018-07-27T21:06:35.782Z,6.00
2018-07-27T21:09:07.089Z,6.63
2018-07-27T21:11:36.030Z,6.50
2018-07-27T21:14:04.809Z,7.00
2018-07-27T21:16:33.582Z,6.40
2018-07-27T21:19:02.431Z,6.60
2018-07-27T21:21:31.324Z,6.77
2018-07-27T21:24:00.058Z,7.13
2018-07-27T21:26:28.909Z,6.67
2018-07-27T21:28:57.714Z,5.93
2018-07-27T21:31:26.475Z,6.00
2018-07-27T21:33:55.263Z,6.83
2018-07-27T21:36:24.034Z,7.00
2018-07-27T21:38:53.035Z,7.07
2018-07-27T21:41:21.743Z,7.40
2018-07-27T21:43:50.524Z,7.27
2018-07-27T21:46:19.313Z,6.40
2018-07-27T21:48:48.213Z,6.47
2018-07-27T21:51:16.977Z,7.03
2018-07-27T21:53:46.923Z,6.83
2018-07-27T21:56:15.710Z,6.17
2018-07-27T21:58:44.304Z,6.67
2018-07-27T22:01:12.982Z,6.17
2018-07-27T22:03:42.047Z,7.03
2018-07-27T22:06:10.865Z,5.87
2018-07-27T22:08:39.653Z,6.90
2018-07-27T22:11:08.525Z,6.33
2018-07-27T22:13:37.306Z,6.53
2018-07-27T22:16:06.129Z,6.77
2018-07-27T22:18:34.729Z,7.00
2018-07-27T22:21:03.196Z,6.90
2018-07-27T22:23:31.869Z,6.73
2018-07-27T22:26:00.636Z,6.97
2018-07-27T22:28:29.442Z,6.87
2018-07-27T22:30:58.317Z,6.87
2018-07-27T22:33:27.109Z,6.77
2018-07-27T22:35:55.968Z,6.33
2018-07-27T22:38:24.730Z,6.90
2018-07-27T22:40:53.721Z,8.03
2018-07-27T22:43:22.517Z,7.07
2018-07-27T22:45:51.409Z,6.97
2018-07-27T22:48:20.177Z,6.57
2018-07-27T22:50:48.990Z,6.13
2018-07-27T22:53:17.789Z,5.97
2018-07-27T22:55:46.380Z,6.20
2018-07-27T22:58:15.165Z,6.20
2018-07-27T23:00:43.909Z,6.67
2018-07-27T23:03:12.670Z,6.20
2018-07-27T23:05:41.516Z,6.63
2018-07-27T23:08:10.361Z,6.07
2018-07-27T23:10:39.097Z,5.77
2018-07-27T23:13:07.959Z,6.20
2018-07-27T23:15:37.100Z,6.53
2018-07-27T23:18:06.186Z,6.03
2018-07-27T23:20:34.916Z,5.70
2018-07-27T23:23:03.754Z,6.67
2018-07-27T23:25:32.661Z,6.50
2018-07-27T23:28:01.211Z,5.67
2018-07-27T23:30:29.918Z,6.87
2018-07-27T23:32:58.854Z,6.13
2018-07-27T23:35:27.440Z,6.43
2018-07-27T23:37:56.153Z,6.47
2018-07-27T23:40:25.338Z,6.67
2018-07-27T23:42:54.137Z,6.73
2018-07-27T23:45:23.457Z,6.40
2018-07-27T23:47:52.217Z,6.53
2018-07-27T23:50:21.346Z,6.53
2018-07-27T23:52:50.189Z,7.13
2018-07-27T23:55:19.010Z,6.60
2018-07-27T23:57:47.857Z,6.90
